sensor_id;sensor_type;location;lat;lon;timestamp;P1;durP1;ratioP1;P2;durP2;ratioP2
31091;SDS011;67728;53.122;12.776;2024-01-06T00:01:02;998.97;;;357.27;;
31091;SDS011;67728;53.122;12.776;2024-01-06T00:02:33;1017.93;;;368.87;;
31091;SDS011;67728;53.122;12.776;2024-01-06T00:04:04;999.97;;;363.80;;
31091;SDS011;67728;53.122;12.776;2024-01-06T00:05:37;1006.53;;;364.60;;
31091;SDS011;67728;53.122;12.776;2024-01-06T00:07:07;1000.97;;;354.67;;
31091;SDS011;67728;53.122;12.776;2024-01-06T00:08:39;1002.83;;;358.33;;
31091;SDS011;67728;53.122;12.776;2024-01-06T00:10:10;1010.30;;;356.03;;
31091;SDS011;67728;53.122;12.776;2024-01-06T00:11:41;965.77;;;337.83;;
31091;SDS011;67728;53.122;12.776;2024-01-06T00:13:12;975.63;;;341.57;;
31091;SDS011;67728;53.122;12.776;2024-01-06T00:14:43;972.77;;;335.33;;
31091;SDS011;67728;53.122;12.776;2024-01-06T00:16:16;972.90;;;337.53;;
31091;SDS011;67728;53.122;12.776;2024-01-06T00:17:48;972.20;;;327.37;;
31091;SDS011;67728;53.122;12.776;2024-01-06T00:19:18;1020.40;;;378.27;;
31091;SDS011;67728;53.122;12.776;2024-01-06T00:20:51;1002.17;;;393.53;;
31091;SDS011;67728;53.122;12.776;2024-01-06T00:22:22;1006.57;;;396.60;;
31091;SDS011;67728;53.122;12.776;2024-01-06T00:23:54;1028.83;;;395.27;;
31091;SDS011;67728;53.122;12.776;2024-01-06T00:25:26;1003.87;;;395.47;;
31091;SDS011;67728;53.122;12.776;2024-01-06T00:26:57;1037.20;;;401.47;;
31091;SDS011;67728;53.122;12.776;2024-01-06T00:28:29;1008.13;;;403.03;;
31091;SDS011;67728;53.122;12.776;2024-01-06T00:30:00;1010.07;;;401.03;;
31091;SDS011;67728;53.122;12.776;2024-01-06T00:31:31;1037.27;;;403.27;;
31091;SDS011;67728;53.122;12.776;2024-01-06T00:33:02;1020.13;;;404.43;;
31091;SDS011;67728;53.122;12.776;2024-01-06T00:34:34;1025.40;;;397.13;;
31091;SDS011;67728;53.122;12.776;2024-01-06T00:36:07;998.33;;;395.53;;
31091;SDS011;67728;53.122;12.776;2024-01-06T00:37:39;1002.03;;;396.80;;
31091;SDS011;67728;53.122;12.776;2024-01-06T00:39:10;1000.47;;;394.57;;
31091;SDS011;67728;53.122;12.776;2024-01-06T00:40:41;1002.60;;;396.37;;
31091;SDS011;67728;53.122;12.776;2024-01-06T00:42:13;996.63;;;386.50;;
31091;SDS011;67728;53.122;12.776;2024-01-06T00:43:44;1021.30;;;391.13;;
31091;SDS011;67728;53.122;12.776;2024-01-06T00:45:16;1005.50;;;388.33;;
31091;SDS011;67728;53.122;12.776;2024-01-06T00:46:47;1004.17;;;385.80;;
31091;SDS011;67728;53.122;12.776;2024-01-06T00:48:18;995.43;;;387.30;;
31091;SDS011;67728;53.122;12.776;2024-01-06T00:49:49;996.50;;;389.33;;
31091;SDS011;67728;53.122;12.776;2024-01-06T00:51:22;1001.60;;;393.47;;
31091;SDS011;67728;53.122;12.776;2024-01-06T00:52:53;1000.23;;;394.47;;
31091;SDS011;67728;53.122;12.776;2024-01-06T00:54:24;1009.37;;;391.47;;
31091;SDS011;67728;53.122;12.776;2024-01-06T00:55:55;999.63;;;396.30;;
31091;SDS011;67728;53.122;12.776;2024-01-06T00:57:26;992.77;;;393.60;;
31091;SDS011;67728;53.122;12.776;2024-01-06T00:58:58;997.10;;;394.43;;
31091;SDS011;67728;53.122;12.776;2024-01-06T01:00:28;995.73;;;382.63;;
31091;SDS011;67728;53.122;12.776;2024-01-06T01:02:00;984.13;;;390.80;;
31091;SDS011;67728;53.122;12.776;2024-01-06T01:03:30;984.23;;;381.10;;
31091;SDS011;67728;53.122;12.776;2024-01-06T01:05:02;979.53;;;382.43;;
31091;SDS011;67728;53.122;12.776;2024-01-06T01:06:34;987.90;;;385.47;;
31091;SDS011;67728;53.122;12.776;2024-01-06T01:08:07;998.07;;;391.30;;
31091;SDS011;67728;53.122;12.776;2024-01-06T01:09:38;975.87;;;379.47;;
31091;SDS011;67728;53.122;12.776;2024-01-06T01:11:10;976.33;;;386.27;;
31091;SDS011;67728;53.122;12.776;2024-01-06T01:12:41;977.30;;;384.17;;
31091;SDS011;67728;53.122;12.776;2024-01-06T01:14:12;974.73;;;380.67;;
31091;SDS011;67728;53.122;12.776;2024-01-06T01:15:43;977.40;;;383.10;;
31091;SDS011;67728;53.122;12.776;2024-01-06T01:17:14;978.93;;;387.13;;
31091;SDS011;67728;53.122;12.776;2024-01-06T01:18:46;973.70;;;382.50;;
31091;SDS011;67728;53.122;12.776;2024-01-06T01:20:17;973.13;;;380.90;;
31091;SDS011;67728;53.122;12.776;2024-01-06T01:21:50;968.50;;;384.20;;
31091;SDS011;67728;53.122;12.776;2024-01-06T01:23:25;972.67;;;386.13;;
31091;SDS011;67728;53.122;12.776;2024-01-06T01:24:56;972.07;;;399.03;;
31091;SDS011;67728;53.122;12.776;2024-01-06T01:26:27;969.97;;;384.90;;
31091;SDS011;67728;53.122;12.776;2024-01-06T01:27:59;975.80;;;381.57;;
31091;SDS011;67728;53.122;12.776;2024-01-06T01:29:30;972.20;;;383.17;;
31091;SDS011;67728;53.122;12.776;2024-01-06T01:31:01;971.37;;;384.43;;
31091;SDS011;67728;53.122;12.776;2024-01-06T01:32:32;968.30;;;376.87;;
31091;SDS011;67728;53.122;12.776;2024-01-06T01:34:03;979.37;;;378.27;;
31091;SDS011;67728;53.122;12.776;2024-01-06T01:35:34;965.90;;;378.17;;
31091;SDS011;67728;53.122;12.776;2024-01-06T01:37:07;966.83;;;376.17;;
31091;SDS011;67728;53.122;12.776;2024-01-06T01:38:38;976.57;;;376.47;;
31091;SDS011;67728;53.122;12.776;2024-01-06T01:40:09;976.97;;;375.80;;
31091;SDS011;67728;53.122;12.776;2024-01-06T01:41:41;968.70;;;385.53;;
31091;SDS011;67728;53.122;12.776;2024-01-06T01:43:16;985.53;;;379.37;;
31091;SDS011;67728;53.122;12.776;2024-01-06T01:44:47;972.77;;;381.93;;
31091;SDS011;67728;53.122;12.776;2024-01-06T01:46:18;975.43;;;375.00;;
31091;SDS011;67728;53.122;12.776;2024-01-06T01:47:50;984.20;;;379.97;;
31091;SDS011;67728;53.122;12.776;2024-01-06T01:49:22;973.17;;;383.50;;
31091;SDS011;67728;53.122;12.776;2024-01-06T01:50:53;1017.83;;;410.97;;
31091;SDS011;67728;53.122;12.776;2024-01-06T01:52:26;1048.70;;;439.00;;
31091;SDS011;67728;53.122;12.776;2024-01-06T01:53:57;1042.93;;;441.13;;
31091;SDS011;67728;53.122;12.776;2024-01-06T01:55:30;1037.33;;;428.27;;
31091;SDS011;67728;53.122;12.776;2024-01-06T01:57:01;1033.43;;;438.50;;
31091;SDS011;67728;53.122;12.776;2024-01-06T01:58:33;1019.13;;;418.80;;
31091;SDS011;67728;53.122;12.776;2024-01-06T02:00:04;1032.10;;;450.53;;
31091;SDS011;67728;53.122;12.776;2024-01-06T02:01:37;1016.43;;;445.27;;
31091;SDS011;67728;53.122;12.776;2024-01-06T02:03:08;1073.40;;;477.90;;
31091;SDS011;67728;53.122;12.776;2024-01-06T02:04:42;1059.10;;;471.77;;
31091;SDS011;67728;53.122;12.776;2024-01-06T02:06:15;1026.27;;;442.87;;
31091;SDS011;67728;53.122;12.776;2024-01-06T02:07:48;1016.43;;;426.33;;
31091;SDS011;67728;53.122;12.776;2024-01-06T02:09:21;1018.97;;;431.37;;
31091;SDS011;67728;53.122;12.776;2024-01-06T02:10:53;1010.00;;;408.33;;
31091;SDS011;67728;53.122;12.776;2024-01-06T02:12:25;1024.90;;;413.33;;
31091;SDS011;67728;53.122;12.776;2024-01-06T02:13:56;1014.07;;;413.30;;
31091;SDS011;67728;53.122;12.776;2024-01-06T02:15:28;1023.87;;;434.10;;
31091;SDS011;67728;53.122;12.776;2024-01-06T02:16:58;1022.30;;;440.20;;
31091;SDS011;67728;53.122;12.776;2024-01-06T02:18:30;1034.30;;;431.00;;
31091;SDS011;67728;53.122;12.776;2024-01-06T02:20:01;1018.27;;;439.27;;
31091;SDS011;67728;53.122;12.776;2024-01-06T02:21:33;1017.93;;;436.60;;
31091;SDS011;67728;53.122;12.776;2024-01-06T02:23:10;1012.57;;;418.37;;
31091;SDS011;67728;53.122;12.776;2024-01-06T02:24:42;1015.10;;;427.20;;
31091;SDS011;67728;53.122;12.776;2024-01-06T02:26:13;1028.83;;;424.97;;
31091;SDS011;67728;53.122;12.776;2024-01-06T02:27:45;1009.47;;;405.17;;
31091;SDS011;67728;53.122;12.776;2024-01-06T02:29:15;1010.37;;;406.33;;
31091;SDS011;67728;53.122;12.776;2024-01-06T02:30:47;1007.70;;;405.63;;
31091;SDS011;67728;53.122;12.776;2024-01-06T02:32:18;1003.03;;;401.50;;
31091;SDS011;67728;53.122;12.776;2024-01-06T02:33:49;1015.60;;;403.53;;
31091;SDS011;67728;53.122;12.776;2024-01-06T02:35:20;1004.23;;;405.07;;
31091;SDS011;67728;53.122;12.776;2024-01-06T02:36:52;1006.47;;;417.17;;
31091;SDS011;67728;53.122;12.776;2024-01-06T02:38:24;1011.10;;;399.77;;
31091;SDS011;67728;53.122;12.776;2024-01-06T02:39:55;1003.90;;;404.10;;
31091;SDS011;67728;53.122;12.776;2024-01-06T02:41:26;1009.23;;;405.97;;
31091;SDS011;67728;53.122;12.776;2024-01-06T02:42:57;1007.87;;;408.27;;
31091;SDS011;67728;53.122;12.776;2024-01-06T02:44:28;1025.10;;;416.87;;
31091;SDS011;67728;53.122;12.776;2024-01-06T02:46:00;1020.33;;;412.53;;
31091;SDS011;67728;53.122;12.776;2024-01-06T02:47:30;1016.97;;;405.10;;
31091;SDS011;67728;53.122;12.776;2024-01-06T02:49:02;1010.37;;;395.33;;
31091;SDS011;67728;53.122;12.776;2024-01-06T02:50:33;1011.97;;;396.77;;
31091;SDS011;67728;53.122;12.776;2024-01-06T02:52:04;1026.57;;;397.43;;
31091;SDS011;67728;53.122;12.776;2024-01-06T02:53:37;1043.60;;;398.00;;
31091;SDS011;67728;53.122;12.776;2024-01-06T02:55:08;1013.67;;;393.73;;
31091;SDS011;67728;53.122;12.776;2024-01-06T02:56:39;1013.07;;;395.80;;
31091;SDS011;67728;53.122;12.776;2024-01-06T02:58:10;1032.27;;;403.23;;
31091;SDS011;67728;53.122;12.776;2024-01-06T02:59:41;1024.60;;;396.33;;
31091;SDS011;67728;53.122;12.776;2024-01-06T03:01:13;1019.23;;;392.03;;
31091;SDS011;67728;53.122;12.776;2024-01-06T03:02:43;991.57;;;383.87;;
31091;SDS011;67728;53.122;12.776;2024-01-06T03:04:15;991.60;;;388.87;;
31091;SDS011;67728;53.122;12.776;2024-01-06T03:05:45;983.73;;;378.80;;
31091;SDS011;67728;53.122;12.776;2024-01-06T03:07:19;982.07;;;385.33;;
31091;SDS011;67728;53.122;12.776;2024-01-06T03:08:51;999.57;;;384.00;;
31091;SDS011;67728;53.122;12.776;2024-01-06T03:10:22;988.10;;;387.00;;
31091;SDS011;67728;53.122;12.776;2024-01-06T03:11:53;992.20;;;390.33;;
31091;SDS011;67728;53.122;12.776;2024-01-06T03:13:24;1002.20;;;391.90;;
31091;SDS011;67728;53.122;12.776;2024-01-06T03:14:55;988.47;;;385.27;;
31091;SDS011;67728;53.122;12.776;2024-01-06T03:16:27;991.10;;;384.70;;
31091;SDS011;67728;53.122;12.776;2024-01-06T03:17:57;985.60;;;374.63;;
31091;SDS011;67728;53.122;12.776;2024-01-06T03:19:29;991.60;;;387.50;;
31091;SDS011;67728;53.122;12.776;2024-01-06T03:21:00;984.50;;;376.83;;
31091;SDS011;67728;53.122;12.776;2024-01-06T03:24:03;995.07;;;382.03;;
31091;SDS011;67728;53.122;12.776;2024-01-06T03:25:35;986.20;;;378.60;;
31091;SDS011;67728;53.122;12.776;2024-01-06T03:27:06;981.30;;;373.60;;
31091;SDS011;67728;53.122;12.776;2024-01-06T03:28:39;998.00;;;379.50;;
31091;SDS011;67728;53.122;12.776;2024-01-06T03:30:10;1008.27;;;375.83;;
31091;SDS011;67728;53.122;12.776;2024-01-06T03:31:43;980.17;;;371.40;;
31091;SDS011;67728;53.122;12.776;2024-01-06T03:33:13;973.27;;;370.27;;
31091;SDS011;67728;53.122;12.776;2024-01-06T03:34:45;972.33;;;370.20;;
31091;SDS011;67728;53.122;12.776;2024-01-06T03:36:15;976.30;;;370.43;;
31091;SDS011;67728;53.122;12.776;2024-01-06T03:37:47;972.30;;;371.23;;
31091;SDS011;67728;53.122;12.776;2024-01-06T03:39:19;971.37;;;371.17;;
31091;SDS011;67728;53.122;12.776;2024-01-06T03:40:51;965.93;;;363.27;;
31091;SDS011;67728;53.122;12.776;2024-01-06T03:42:21;973.77;;;367.63;;
31091;SDS011;67728;53.122;12.776;2024-01-06T03:43:53;973.47;;;368.07;;
31091;SDS011;67728;53.122;12.776;2024-01-06T03:45:24;970.27;;;373.20;;
31091;SDS011;67728;53.122;12.776;2024-01-06T03:46:55;967.33;;;371.47;;
31091;SDS011;67728;53.122;12.776;2024-01-06T03:48:26;981.13;;;374.40;;
31091;SDS011;67728;53.122;12.776;2024-01-06T03:49:58;972.93;;;372.43;;
31091;SDS011;67728;53.122;12.776;2024-01-06T03:51:28;980.90;;;374.63;;
31091;SDS011;67728;53.122;12.776;2024-01-06T03:53:00;977.97;;;375.10;;
31091;SDS011;67728;53.122;12.776;2024-01-06T03:54:32;982.93;;;372.80;;
31091;SDS011;67728;53.122;12.776;2024-01-06T03:56:04;977.17;;;369.73;;
31091;SDS011;67728;53.122;12.776;2024-01-06T03:57:35;982.13;;;374.77;;
31091;SDS011;67728;53.122;12.776;2024-01-06T03:59:06;981.37;;;375.60;;
31091;SDS011;67728;53.122;12.776;2024-01-06T04:00:37;999.30;;;381.37;;
31091;SDS011;67728;53.122;12.776;2024-01-06T04:02:09;985.93;;;376.63;;
31091;SDS011;67728;53.122;12.776;2024-01-06T04:03:39;989.47;;;364.70;;
31091;SDS011;67728;53.122;12.776;2024-01-06T04:05:11;984.10;;;368.17;;
31091;SDS011;67728;53.122;12.776;2024-01-06T04:06:43;978.27;;;365.07;;
31091;SDS011;67728;53.122;12.776;2024-01-06T04:08:13;980.33;;;361.00;;
31091;SDS011;67728;53.122;12.776;2024-01-06T04:09:46;979.43;;;368.40;;
31091;SDS011;67728;53.122;12.776;2024-01-06T04:11:17;976.03;;;364.97;;
31091;SDS011;67728;53.122;12.776;2024-01-06T04:12:48;983.00;;;369.60;;
31091;SDS011;67728;53.122;12.776;2024-01-06T04:14:19;986.30;;;375.63;;
31091;SDS011;67728;53.122;12.776;2024-01-06T04:15:51;970.73;;;335.57;;
31091;SDS011;67728;53.122;12.776;2024-01-06T04:17:22;967.87;;;334.20;;
31091;SDS011;67728;53.122;12.776;2024-01-06T04:18:53;976.37;;;344.83;;
31091;SDS011;67728;53.122;12.776;2024-01-06T04:20:24;970.00;;;353.30;;
31091;SDS011;67728;53.122;12.776;2024-01-06T04:21:55;956.27;;;321.97;;
31091;SDS011;67728;53.122;12.776;2024-01-06T04:23:26;973.23;;;363.50;;
31091;SDS011;67728;53.122;12.776;2024-01-06T04:24:59;971.80;;;351.33;;
31091;SDS011;67728;53.122;12.776;2024-01-06T04:26:30;973.70;;;347.33;;
31091;SDS011;67728;53.122;12.776;2024-01-06T04:28:01;973.10;;;320.77;;
31091;SDS011;67728;53.122;12.776;2024-01-06T04:29:32;970.50;;;325.93;;
31091;SDS011;67728;53.122;12.776;2024-01-06T04:31:03;983.50;;;329.70;;
31091;SDS011;67728;53.122;12.776;2024-01-06T04:32:34;971.57;;;332.03;;
31091;SDS011;67728;53.122;12.776;2024-01-06T04:34:06;985.50;;;333.07;;
31091;SDS011;67728;53.122;12.776;2024-01-06T04:35:36;982.53;;;340.23;;
31091;SDS011;67728;53.122;12.776;2024-01-06T04:37:08;979.57;;;339.57;;
31091;SDS011;67728;53.122;12.776;2024-01-06T04:38:39;987.87;;;334.13;;
31091;SDS011;67728;53.122;12.776;2024-01-06T04:40:12;982.10;;;329.77;;
31091;SDS011;67728;53.122;12.776;2024-01-06T04:41:43;980.23;;;336.53;;
31091;SDS011;67728;53.122;12.776;2024-01-06T04:43:14;976.30;;;329.20;;
31091;SDS011;67728;53.122;12.776;2024-01-06T04:44:46;982.70;;;339.53;;
31091;SDS011;67728;53.122;12.776;2024-01-06T04:46:16;984.83;;;345.00;;
31091;SDS011;67728;53.122;12.776;2024-01-06T04:47:48;991.03;;;333.13;;
31091;SDS011;67728;53.122;12.776;2024-01-06T04:49:18;971.80;;;330.10;;
31091;SDS011;67728;53.122;12.776;2024-01-06T04:50:50;963.93;;;325.03;;
31091;SDS011;67728;53.122;12.776;2024-01-06T04:52:21;980.30;;;326.23;;
31091;SDS011;67728;53.122;12.776;2024-01-06T04:53:53;969.73;;;321.00;;
31091;SDS011;67728;53.122;12.776;2024-01-06T04:55:25;969.43;;;317.17;;
31091;SDS011;67728;53.122;12.776;2024-01-06T04:56:57;968.40;;;321.73;;
31091;SDS011;67728;53.122;12.776;2024-01-06T04:58:28;967.93;;;325.67;;
31091;SDS011;67728;53.122;12.776;2024-01-06T05:00:00;987.87;;;338.40;;
31091;SDS011;67728;53.122;12.776;2024-01-06T05:01:31;981.17;;;327.03;;
31091;SDS011;67728;53.122;12.776;2024-01-06T05:03:02;991.33;;;331.93;;
31091;SDS011;67728;53.122;12.776;2024-01-06T05:04:34;1003.77;;;339.03;;
31091;SDS011;67728;53.122;12.776;2024-01-06T05:06:05;1008.03;;;345.80;;
31091;SDS011;67728;53.122;12.776;2024-01-06T05:07:36;1053.73;;;371.07;;
31091;SDS011;67728;53.122;12.776;2024-01-06T05:09:07;1012.90;;;342.80;;
31091;SDS011;67728;53.122;12.776;2024-01-06T05:10:39;1022.87;;;358.10;;
31091;SDS011;67728;53.122;12.776;2024-01-06T05:12:11;999.73;;;336.60;;
31091;SDS011;67728;53.122;12.776;2024-01-06T05:13:42;987.67;;;327.23;;
31091;SDS011;67728;53.122;12.776;2024-01-06T05:15:13;997.80;;;335.30;;
31091;SDS011;67728;53.122;12.776;2024-01-06T05:16:44;1004.53;;;345.57;;
31091;SDS011;67728;53.122;12.776;2024-01-06T05:18:16;984.50;;;321.27;;
31091;SDS011;67728;53.122;12.776;2024-01-06T05:19:47;1013.20;;;345.27;;
31091;SDS011;67728;53.122;12.776;2024-01-06T05:21:19;990.53;;;333.67;;
31091;SDS011;67728;53.122;12.776;2024-01-06T05:22:50;1000.20;;;339.27;;
31091;SDS011;67728;53.122;12.776;2024-01-06T05:24:22;1002.83;;;330.33;;
31091;SDS011;67728;53.122;12.776;2024-01-06T05:25:54;992.23;;;335.83;;
31091;SDS011;67728;53.122;12.776;2024-01-06T05:27:25;986.80;;;302.10;;
31091;SDS011;67728;53.122;12.776;2024-01-06T05:28:56;985.27;;;313.73;;
31091;SDS011;67728;53.122;12.776;2024-01-06T05:30:28;1018.07;;;305.30;;
31091;SDS011;67728;53.122;12.776;2024-01-06T05:31:58;994.50;;;328.97;;
31091;SDS011;67728;53.122;12.776;2024-01-06T05:33:30;1024.67;;;344.47;;
31091;SDS011;67728;53.122;12.776;2024-01-06T05:35:01;1011.03;;;347.87;;
31091;SDS011;67728;53.122;12.776;2024-01-06T05:36:33;1025.90;;;348.43;;
31091;SDS011;67728;53.122;12.776;2024-01-06T05:38:03;1038.47;;;358.20;;
31091;SDS011;67728;53.122;12.776;2024-01-06T05:39:36;1028.67;;;362.03;;
31091;SDS011;67728;53.122;12.776;2024-01-06T05:41:09;1019.07;;;354.30;;
31091;SDS011;67728;53.122;12.776;2024-01-06T05:42:40;1059.03;;;382.33;;
31091;SDS011;67728;53.122;12.776;2024-01-06T05:44:11;997.17;;;338.67;;
31091;SDS011;67728;53.122;12.776;2024-01-06T05:45:43;1019.53;;;359.03;;
31091;SDS011;67728;53.122;12.776;2024-01-06T05:47:14;1023.00;;;363.40;;
31091;SDS011;67728;53.122;12.776;2024-01-06T05:48:46;1018.70;;;355.70;;
31091;SDS011;67728;53.122;12.776;2024-01-06T05:50:17;1106.47;;;414.13;;
31091;SDS011;67728;53.122;12.776;2024-01-06T05:51:49;1000.87;;;330.93;;
31091;SDS011;67728;53.122;12.776;2024-01-06T05:53:20;1201.00;;;476.40;;
31091;SDS011;67728;53.122;12.776;2024-01-06T05:54:51;992.80;;;317.47;;
31091;SDS011;67728;53.122;12.776;2024-01-06T05:56:25;982.17;;;324.17;;
31091;SDS011;67728;53.122;12.776;2024-01-06T05:57:55;999.47;;;339.40;;
31091;SDS011;67728;53.122;12.776;2024-01-06T05:59:27;1100.43;;;404.83;;
31091;SDS011;67728;53.122;12.776;2024-01-06T06:00:58;1105.43;;;419.07;;
31091;SDS011;67728;53.122;12.776;2024-01-06T06:02:29;948.27;;;296.83;;
31091;SDS011;67728;53.122;12.776;2024-01-06T06:04:02;952.10;;;293.70;;
31091;SDS011;67728;53.122;12.776;2024-01-06T06:05:33;946.43;;;294.73;;
31091;SDS011;67728;53.122;12.776;2024-01-06T06:07:04;946.67;;;296.50;;
31091;SDS011;67728;53.122;12.776;2024-01-06T06:08:36;958.33;;;304.37;;
31091;SDS011;67728;53.122;12.776;2024-01-06T06:10:07;963.67;;;304.17;;
31091;SDS011;67728;53.122;12.776;2024-01-06T06:11:41;974.77;;;316.10;;
31091;SDS011;67728;53.122;12.776;2024-01-06T06:13:11;1082.57;;;396.63;;
31091;SDS011;67728;53.122;12.776;2024-01-06T06:14:43;964.43;;;311.23;;
31091;SDS011;67728;53.122;12.776;2024-01-06T06:16:14;995.07;;;336.77;;
31091;SDS011;67728;53.122;12.776;2024-01-06T06:17:45;1125.73;;;420.67;;
31091;SDS011;67728;53.122;12.776;2024-01-06T06:19:16;1090.60;;;395.77;;
31091;SDS011;67728;53.122;12.776;2024-01-06T06:20:48;1076.37;;;398.80;;
31091;SDS011;67728;53.122;12.776;2024-01-06T06:22:19;999.83;;;328.97;;
31091;SDS011;67728;53.122;12.776;2024-01-06T06:23:52;968.30;;;315.83;;
31091;SDS011;67728;53.122;12.776;2024-01-06T06:25:22;968.17;;;314.70;;
31091;SDS011;67728;53.122;12.776;2024-01-06T06:26:55;994.03;;;330.43;;
31091;SDS011;67728;53.122;12.776;2024-01-06T06:28:26;971.20;;;311.50;;
31091;SDS011;67728;53.122;12.776;2024-01-06T06:29:57;998.23;;;333.57;;
31091;SDS011;67728;53.122;12.776;2024-01-06T06:31:28;990.73;;;328.53;;
31091;SDS011;67728;53.122;12.776;2024-01-06T06:32:59;1001.27;;;339.20;;
31091;SDS011;67728;53.122;12.776;2024-01-06T06:34:30;1046.23;;;365.57;;
31091;SDS011;67728;53.122;12.776;2024-01-06T06:36:02;1010.70;;;344.37;;
31091;SDS011;67728;53.122;12.776;2024-01-06T06:37:33;979.90;;;317.70;;
31091;SDS011;67728;53.122;12.776;2024-01-06T06:39:05;985.03;;;329.07;;
31091;SDS011;67728;53.122;12.776;2024-01-06T06:40:36;991.23;;;331.60;;
31091;SDS011;67728;53.122;12.776;2024-01-06T06:42:08;994.07;;;334.03;;
31091;SDS011;67728;53.122;12.776;2024-01-06T06:43:39;1032.53;;;357.00;;
31091;SDS011;67728;53.122;12.776;2024-01-06T06:45:11;1035.20;;;364.80;;
31091;SDS011;67728;53.122;12.776;2024-01-06T06:46:42;1227.67;;;470.33;;
31091;SDS011;67728;53.122;12.776;2024-01-06T06:48:13;1073.40;;;373.27;;
31091;SDS011;67728;53.122;12.776;2024-01-06T06:49:44;1065.43;;;376.70;;
31091;SDS011;67728;53.122;12.776;2024-01-06T06:51:16;1011.90;;;339.70;;
31091;SDS011;67728;53.122;12.776;2024-01-06T06:52:46;1014.40;;;344.73;;
31091;SDS011;67728;53.122;12.776;2024-01-06T06:54:18;999.80;;;335.77;;
31091;SDS011;67728;53.122;12.776;2024-01-06T06:55:49;1006.87;;;333.67;;
31091;SDS011;67728;53.122;12.776;2024-01-06T06:57:22;1010.97;;;339.33;;
31091;SDS011;67728;53.122;12.776;2024-01-06T06:58:53;1000.10;;;326.13;;
31091;SDS011;67728;53.122;12.776;2024-01-06T07:00:25;1084.10;;;382.50;;
31091;SDS011;67728;53.122;12.776;2024-01-06T07:01:56;1125.07;;;405.47;;
31091;SDS011;67728;53.122;12.776;2024-01-06T07:03:28;1063.33;;;343.77;;
31091;SDS011;67728;53.122;12.776;2024-01-06T07:04:58;1119.93;;;385.00;;
31091;SDS011;67728;53.122;12.776;2024-01-06T07:06:30;1149.17;;;398.17;;
31091;SDS011;67728;53.122;12.776;2024-01-06T07:08:01;1059.43;;;319.53;;
31091;SDS011;67728;53.122;12.776;2024-01-06T07:09:32;1027.43;;;324.93;;
31091;SDS011;67728;53.122;12.776;2024-01-06T07:11:03;1073.73;;;380.37;;
31091;SDS011;67728;53.122;12.776;2024-01-06T07:12:36;1071.73;;;387.63;;
31091;SDS011;67728;53.122;12.776;2024-01-06T07:14:06;1007.50;;;334.13;;
31091;SDS011;67728;53.122;12.776;2024-01-06T07:15:38;1005.60;;;317.73;;
31091;SDS011;67728;53.122;12.776;2024-01-06T07:17:10;981.80;;;320.03;;
31091;SDS011;67728;53.122;12.776;2024-01-06T07:18:41;977.57;;;303.60;;
31091;SDS011;67728;53.122;12.776;2024-01-06T07:20:12;961.23;;;278.17;;
31091;SDS011;67728;53.122;12.776;2024-01-06T07:21:43;954.67;;;283.10;;
31091;SDS011;67728;53.122;12.776;2024-01-06T07:23:15;964.00;;;289.40;;
31091;SDS011;67728;53.122;12.776;2024-01-06T07:24:45;962.80;;;278.70;;
31091;SDS011;67728;53.122;12.776;2024-01-06T07:26:17;957.77;;;280.23;;
31091;SDS011;67728;53.122;12.776;2024-01-06T07:27:50;982.07;;;283.87;;
31091;SDS011;67728;53.122;12.776;2024-01-06T07:29:22;958.77;;;280.13;;
31091;SDS011;67728;53.122;12.776;2024-01-06T07:30:52;963.90;;;282.90;;
31091;SDS011;67728;53.122;12.776;2024-01-06T07:32:24;951.30;;;273.27;;
31091;SDS011;67728;53.122;12.776;2024-01-06T07:33:55;962.20;;;280.80;;
31091;SDS011;67728;53.122;12.776;2024-01-06T07:35:27;969.87;;;283.50;;
31091;SDS011;67728;53.122;12.776;2024-01-06T07:36:59;953.07;;;275.17;;
31091;SDS011;67728;53.122;12.776;2024-01-06T07:38:31;955.93;;;277.60;;
31091;SDS011;67728;53.122;12.776;2024-01-06T07:40:02;961.37;;;278.93;;
31091;SDS011;67728;53.122;12.776;2024-01-06T07:41:34;953.17;;;301.83;;
31091;SDS011;67728;53.122;12.776;2024-01-06T07:43:06;954.83;;;298.73;;
31091;SDS011;67728;53.122;12.776;2024-01-06T07:44:37;1000.37;;;325.03;;
31091;SDS011;67728;53.122;12.776;2024-01-06T07:46:08;978.00;;;328.43;;
31091;SDS011;67728;53.122;12.776;2024-01-06T07:47:40;990.53;;;334.57;;
31091;SDS011;67728;53.122;12.776;2024-01-06T07:49:12;991.00;;;333.83;;
31091;SDS011;67728;53.122;12.776;2024-01-06T07:50:42;968.00;;;323.50;;
31091;SDS011;67728;53.122;12.776;2024-01-06T07:52:14;960.27;;;312.73;;
31091;SDS011;67728;53.122;12.776;2024-01-06T07:53:45;978.00;;;318.97;;
31091;SDS011;67728;53.122;12.776;2024-01-06T07:55:16;965.73;;;312.53;;
31091;SDS011;67728;53.122;12.776;2024-01-06T07:56:47;977.50;;;320.47;;
31091;SDS011;67728;53.122;12.776;2024-01-06T07:58:20;959.07;;;313.57;;
31091;SDS011;67728;53.122;12.776;2024-01-06T07:59:51;961.13;;;312.13;;
31091;SDS011;67728;53.122;12.776;2024-01-06T08:01:23;970.37;;;309.63;;
31091;SDS011;67728;53.122;12.776;2024-01-06T08:02:54;949.47;;;310.73;;
31091;SDS011;67728;53.122;12.776;2024-01-06T08:04:26;967.47;;;368.90;;
31091;SDS011;67728;53.122;12.776;2024-01-06T08:05:56;966.10;;;361.00;;
31091;SDS011;67728;53.122;12.776;2024-01-06T08:07:28;962.53;;;362.33;;
31091;SDS011;67728;53.122;12.776;2024-01-06T08:09:01;970.10;;;360.93;;
31091;SDS011;67728;53.122;12.776;2024-01-06T08:10:33;961.10;;;347.40;;
31091;SDS011;67728;53.122;12.776;2024-01-06T08:12:05;963.33;;;355.10;;
31091;SDS011;67728;53.122;12.776;2024-01-06T08:13:38;998.17;;;327.63;;
31091;SDS011;67728;53.122;12.776;2024-01-06T08:15:09;954.37;;;313.87;;
31091;SDS011;67728;53.122;12.776;2024-01-06T08:16:40;950.73;;;312.00;;
31091;SDS011;67728;53.122;12.776;2024-01-06T08:18:12;1016.57;;;350.30;;
31091;SDS011;67728;53.122;12.776;2024-01-06T08:19:42;985.93;;;335.57;;
31091;SDS011;67728;53.122;12.776;2024-01-06T08:21:16;971.43;;;339.53;;
31091;SDS011;67728;53.122;12.776;2024-01-06T08:22:47;1043.57;;;327.77;;
31091;SDS011;67728;53.122;12.776;2024-01-06T08:24:19;983.27;;;328.27;;
31091;SDS011;67728;53.122;12.776;2024-01-06T08:25:49;994.07;;;349.53;;
31091;SDS011;67728;53.122;12.776;2024-01-06T08:27:21;980.93;;;332.97;;
31091;SDS011;67728;53.122;12.776;2024-01-06T08:28:55;1032.97;;;334.97;;
31091;SDS011;67728;53.122;12.776;2024-01-06T08:30:26;971.23;;;326.27;;
31091;SDS011;67728;53.122;12.776;2024-01-06T08:31:57;1008.50;;;331.53;;